x

Southeast Hawaii - 205 Nm Southeast Of Hilo, Hi (51004) Wave Buoy

11:50am - Sat 25th Oct 2014 All times are HST. -10 hours from GMT.

  • Sig Wave height 5.9ft
  • Swell Direction
  • Peak Period 12s
  • Average Period 6s
  • Wind
    18mph, 25mph gusts
  • Sea Temp 81°f
  • Air Temp 79°f
  • Sea Pressure 1014.6mb
  • Southeast Hawaii - 205 Nm Southeast Of Hilo, Hi
  • Southeast Hawaii - 205 Nm Southeast Of Hilo, Hi

More Historic Weather Station data

Upgrade to MSW Pro to gain access to the past 30 days of data for over 8000 Wavebouys and Weather Stations around the globe.

Join Pro

Comparision Forecast

View Surf forecast
   
Sat 10/25 11:50am 6ft 12s 6s 18 25 mph 1014.6mb 81f 79f
10:50am 5.5ft 7s 6s 18 20 mph 1015.3mb 81f 80f
9:50am 6ft 8s 6s 16 18 mph 1015.9mb 81f 80f
8:50am 6ft 11s 6s 16 18 mph 1015.6mb 81f 79f
7:50am 6.5ft 11s 6s 18 20 mph 1015.1mb 81f 79f
6:50am 6ft 8s 6s 16 20 mph 1014.8mb 81f 79f
5:50am 6ft 12s 6s 18 20 mph 1014.2mb 81f 79f
4:50am 6.5ft 12s 6s 18 20 mph 1013.9mb 81f 78f
3:50am 6ft 12s 6s 18 22 mph 1013.9mb 81f 76f
2:50am 6ft 12s 6s 20 22 mph 1013.8mb 81f 79f
1:50am 6ft 13s 6s 20 25 mph 1014.5mb 81f 78f
12:50am 6ft 12s 6s 20 25 mph 1015.3mb 81f 77f
Fri 10/24 11:50pm 5.5ft 13s 6s 27 36 mph 1015.2mb 81f 78f
10:50pm 6ft 12s 6s 16 18 mph 1016mb 81f 80f
9:50pm 6ft 8s 6s 18 20 mph 1016.2mb 81f 80f
8:50pm 6ft 8s 6s 18 22 mph 1016.1mb 81f 80f
7:50pm 6ft 8s 6s 18 22 mph 1015.8mb 81f 80f
6:50pm 5.5ft 13s 6s 16 20 mph 1015.1mb 81f 80f
5:50pm 6ft 14s 6s 18 20 mph 1014.4mb 81f 80f
4:50pm 6ft 8s 6s 16 20 mph 1014mb 81f 80f
3:50pm 6ft 7s 6s 16 20 mph 1013.8mb 81f 80f
2:50pm 6ft 8s 6s 18 22 mph 1013.6mb 81f 80f
1:50pm 6ft 8s 6s 16 20 mph 1013.9mb 81f 80f
12:50pm 6ft 8s 6s 18 20 mph 1014.6mb 81f 80f
11:50am 6ft 8s 6s 18 20 mph 1015.1mb 81f 80f
10:50am 6ft 8s 6s 18 22 mph 1015.8mb 81f 80f
9:50am 6ft 7s 6s 18 20 mph 1016.2mb 81f 80f
8:50am 6.5ft 8s 6s 18 22 mph 1015.8mb 81f 80f
7:50am 6ft 8s 6s 18 20 mph 1015.2mb 81f 79f
6:50am 6ft 5s 5s 20 22 mph 1014.8mb 81f 79f
5:50am 6.5ft 8s 6s 20 25 mph 1014.2mb 81f 79f
4:50am 6ft 8s 6s 20 25 mph 1013.7mb 81f 79f
3:50am 6.5ft 8s 6s 20 25 mph 1013.5mb 81f 79f
2:50am 6.5ft 10s 6s 20 22 mph 1014mb 81f 79f
1:50am 6ft 7s 6s 20 25 mph 1014.3mb 81f 79f
12:50am 6ft 8s 6s 20 22 mph 1015.1mb 81f 79f
Thu 10/23 11:50pm 6ft 8s 6s 18 22 mph 1015.9mb 81f 77f
10:50pm 6ft 8s 6s 18 25 mph 1016.1mb 81f 80f
9:50pm 5.5ft 8s 6s 16 20 mph 1016.4mb 81f 79f
8:50pm 5.5ft 9s 6s 16 18 mph 1016.5mb 81f 80f
7:50pm 5.5ft 8s 6s 13 16 mph 1016.3mb 81f 80f
6:50pm 5ft 7s 6s 16 18 mph 1015.5mb 81f 80f
5:50pm 5.5ft 8s 6s 16 18 mph 1014.7mb 81f 80f
4:50pm 6ft 8s 6s 13 16 mph 1014.3mb 81f 80f
3:50pm 6ft 11s 7s 13 16 mph 1013.7mb 81f 80f
2:50pm 5.5ft 8s 6s 13 16 mph 1013.5mb 81f 80f
1:50pm 5.5ft 11s 6s 11 13 mph 1013.8mb 81f 80f
12:50pm 5.5ft 10s 6s 11 13 mph 1014.5mb 81f 80f
11:50am 5.5ft 11s 6s 13 16 mph 1015.2mb 81f 80f
10:50am 5.5ft 10s 6s 13 16 mph 1016mb 81f 80f
9:50am 5.5ft 11s 6s 13 16 mph 1016.2mb 81f 80f
8:50am 5.5ft 11s 6s 13 16 mph 1016mb 81f 80f
7:50am 5.5ft 7s 6s 16 18 mph 1015.5mb 81f 80f
6:50am 5.5ft 11s 7s 11 13 mph 1015mb 81f 79f
5:50am 5.5ft 11s 6s 9 11 mph 1014.4mb 81f 78f
4:50am 6ft 11s 7s 13 16 mph 1013.8mb 81f 79f
3:50am 6ft 11s 7s 13 16 mph 1013.7mb 81f 79f
2:50am 5.5ft 11s 6s 11 13 mph 1013.6mb 81f 79f
1:50am 6ft 11s 7s 13 18 mph 1013.8mb 81f 79f
12:50am 6ft 11s 7s 13 16 mph 1014.4mb 81f 79f
Wed 10/22 11:50pm 6ft 11s 7s 13 16 mph 1015mb 81f 79f
10:50pm 5.5ft 11s 7s 13 16 mph 1015.4mb 81f 79f
9:50pm 6ft 11s 6s 13 16 mph 1015.8mb 81f 79f
8:50pm 6ft 11s 7s 13 16 mph 1015.9mb 81f 78f
7:50pm 6.5ft 11s 7s 16 18 mph 1015.5mb 81f 79f
6:50pm 6ft 11s 7s 13 16 mph 1014.7mb 81f 79f
5:50pm 6.5ft 11s 7s 11 13 mph 1014.2mb 81f 79f
4:50pm 6.5ft 11s 7s 13 16 mph 1013.7mb 81f 80f
3:50pm 6ft 11s 6s 13 16 mph 1013.3mb 81f 80f
2:50pm 7ft 11s 6s 13 18 mph 1013mb 81f 78f
1:50pm 7ft 12s 7s 16 22 mph 1013.3mb 81f 79f
12:50pm 7.5ft 12s 7s 18 20 mph 1013.8mb 81f 80f
11:50am 7ft 11s 6s 16 18 mph 1014.8mb 81f 80f
10:50am 7.5ft 12s 7s 16 18 mph 1015.4mb 81f 80f
9:50am 7.5ft 12s 7s 18 20 mph 1015.8mb 81f 80f
8:50am 7ft 12s 6s 18 22 mph 1015.6mb 81f 80f
7:50am 7ft 11s 7s 18 22 mph 1015mb 81f 80f
6:50am 7ft 11s 7s 18 22 mph 1014.5mb 81f 80f
5:50am 7.5ft 12s 7s 13 16 mph 1014.5mb 81f 77f
4:50am 8ft 12s 7s 13 18 mph 1013.9mb 81f 79f
3:50am 7.5ft 12s 7s 22 29 mph 1013.5mb 81f 77f
2:50am 7.5ft 11s 7s 16 18 mph 1013.7mb 81f 80f
1:50am 7ft 12s 7s 16 20 mph 1014.1mb 81f 80f
12:50am 7ft 13s 7s 16 20 mph 1014.6mb 81f 79f
Tue 10/21 11:50pm 8ft 12s 7s 18 20 mph 1015.1mb 81f 80f